Alliance St Louis — WGAE — position and weather

sailwx.info

Track history (hours):
 
Tides and Currents Weather Stations Pressure Air Temp Water Temp Dewpoint Dewpoint Depression Visibility Wind Speed Wind Dir Waves Ship Positions

Alliance St Louis

Owner: MAERSK LINE, LIMITED, Norfolk, VA. More information available from US FCC via Universal Licensing System and Coast Guard Vessel Documentation Center.

Last reported at 2018-Jul-18 18:00 UTC. Time now 2018-Jul-19 01:49 UTC.
Position N 40°36' W 048°42'.

Length 200 m; draft 8.9 m.

Type: Cargo ship. MMSI: 367093000.

Wind from 190 at 20 knots

Barometer 1026.0 mb
Air temperature 25.0 ° C
Visibility: greater than 10.8 NM
Dewpoint 23.6 ° C
Water temperature 25.1 ° C

Date/timePositionNaut miles runAvg speedWind from/ knotsBaromVisibWave heightAir tempDewpointWater temp
2018-Jul-18 18:00N 40°36' W 048°42'29516.4 190 / 201026.010.8 25.023.625.1
2018-Jul-18 00:00N 40°00' W 055°06'9716.2 200 / 151022.810.8 26.021.726.8
2018-Jul-17 18:00N 39°48' W 057°12'10818.0 240 / 141022.010.8 29.023.5
2018-Jul-17 12:00N 39°30' W 059°30'10417.3 240 / 151021.010.8 26.023.226.3
2018-Jul-17 06:00N 39°12' W 061°42'57514.8 240 / 81020.010.8 23.521.422.3
2018-Jul-15 15:12N 38°18' W 073°56'416.3
2018-Jul-15 14:59N 38°19' W 074°01'916.0
2018-Jul-15 14:25N 38°21' W 074°12'716.1
2018-Jul-15 14:00N 38°22' W 074°20'815.9
2018-Jul-15 13:30N 38°24' W 074°30'815.9
2018-Jul-15 13:00N 38°25' W 074°40'815.3
2018-Jul-15 12:30N 38°31' W 074°47'815.5
2018-Jul-15 12:01N 38°37' W 074°52'815.5
2018-Jul-15 11:31N 38°43' W 074°58'714.3
2018-Jul-15 11:00N 38°49' W 075°03'510.7
2018-Jul-15 10:30N 38°54' W 075°05'714.5
2018-Jul-15 10:00N 39°01' W 075°09'713.6
2018-Jul-15 09:31N 39°07' W 075°13'815.8
2018-Jul-15 09:01N 39°14' W 075°18'816.3
2018-Jul-15 08:30N 39°20' W 075°25'815.6
2018-Jul-15 08:00N 39°26' W 075°32'713.0
2018-Jul-15 07:30N 39°32' W 075°33'611.4
2018-Jul-15 07:01N 39°38' W 075°34'5 9.9
2018-Jul-15 06:30N 39°42' W 075°31'0 0.9
2018-Jul-15 05:58N 39°43' W 075°31'0 0.0
2018-Jul-15 05:28N 39°43' W 075°31'0 0.0
2018-Jul-15 04:58N 39°43' W 075°31'0 0.0
2018-Jul-15 04:28N 39°43' W 075°31'0 0.0
2018-Jul-15 03:58N 39°43' W 075°31'0 0.0
2018-Jul-15 03:28N 39°43' W 075°31'0 0.0
2018-Jul-15 02:58N 39°43' W 075°31'0 0.0
2018-Jul-15 02:28N 39°43' W 075°31'0 0.0
2018-Jul-15 01:58N 39°43' W 075°31'0 0.0
2018-Jul-15 01:28N 39°43' W 075°31'0 0.0
2018-Jul-15 00:58N 39°43' W 075°31'0 0.0
2018-Jul-15 00:28N 39°43' W 075°31'0 0.0
2018-Jul-14 23:58N 39°43' W 075°31'0 0.0
2018-Jul-14 23:28N 39°43' W 075°31'0 0.0
2018-Jul-14 22:58N 39°43' W 075°31'0 0.0
2018-Jul-14 22:28N 39°43' W 075°31'0 0.0
2018-Jul-14 21:58N 39°43' W 075°31'0 0.0
2018-Jul-14 21:28N 39°43' W 075°31'0 0.2
2018-Jul-14 21:00N 39°43' W 075°31'2 3.8
2018-Jul-14 20:30N 39°41' W 075°31'5 9.7
2018-Jul-14 20:00N 39°36' W 075°34'612.2
2018-Jul-14 19:30N 39°30' W 075°33'713.4
2018-Jul-14 19:00N 39°24' W 075°30'815.0
2018-Jul-14 18:30N 39°19' W 075°23'714.8
2018-Jul-14 18:00N 39°13' W 075°17'713.4
2018-Jul-14 17:30N 39°07' W 075°13'611.9
2018-Jul-14 17:00N 39°02' W 075°09'713.1
2018-Jul-14 16:30N 38°56' W 075°06'713.3
2018-Jul-14 16:00N 38°49' W 075°03'4 9.0
2018-Jul-14 15:30N 38°46' W 074°60'4 8.2
2018-Jul-14 15:00N 38°44' W 074°55'612.1
2018-Jul-14 14:29N 38°39' W 074°50'1515.1
2018-Jul-14 13:31N 38°26' W 074°40'816.3
2018-Jul-14 13:01N 38°18' W 074°39'816.4
2018-Jul-14 12:31N 38°10' W 074°38'816.5
2018-Jul-14 12:01N 38°02' W 074°38'14823.6
2018-Jul-14 12:00N 37°48' W 074°36'611.9 1022.027.0 26.520.023.4
2018-Jul-14 11:30N 37°54' W 074°37'816.2
2018-Jul-14 11:01N 37°46' W 074°37'816.2
2018-Jul-14 10:30N 37°37' W 074°36'816.1
2018-Jul-14 10:00N 37°29' W 074°35'714.5
2018-Jul-14 09:30N 37°22' W 074°36'815.8
2018-Jul-14 09:00N 37°14' W 074°36'815.8
2018-Jul-14 08:30N 37°07' W 074°36'15318.0
2018-Jul-14 00:00N 34°36' W 075°12'40810.3 060 / 141020.527.0 26.521.528.7
2018-Jul-12 08:14N 30°24' W 081°33'0 0.0
2018-Jul-12 05:46N 30°24' W 081°33'0 0.0
2018-Jul-12 05:29N 30°24' W 081°33'0 0.0
2018-Jul-12 04:48N 30°24' W 081°33'0 0.0
2018-Jul-12 04:20N 30°24' W 081°33'0 0.0
2018-Jul-12 04:00N 30°24' W 081°33'0 0.0
2018-Jul-12 02:47N 30°24' W 081°33'0 0.0
2018-Jul-12 00:38N 30°24' W 081°33'0 0.0
2018-Jul-12 00:30N 30°24' W 081°33'0 0.0
2018-Jul-12 00:00N 30°24' W 081°33'39 4.1
2018-Jul-11 14:21N 30°18' W 080°48'4814.3
2018-Jul-11 11:00N 29°42' W 080°12'19717.9 210 / 131017.2 28.023.129.6
2018-Jul-11 00:00N 26°30' W 079°24'11 8.8 030 / 101018.027.0 28.023.929.6
2018-Jul-10 22:46N 26°20' W 079°28'518.2
2018-Jul-10 22:30N 26°15' W 079°28'918.7
2018-Jul-10 22:00N 26°06' W 079°29'918.6
2018-Jul-10 21:30N 25°57' W 079°32'1018.9
2018-Jul-10 21:00N 25°47' W 079°33'1019.0
2018-Jul-10 20:30N 25°38' W 079°34'1018.9
2018-Jul-10 19:58N 25°28' W 079°35'13717.2
2018-Jul-10 12:00N 23°48' W 081°18'20917.4 020 / 81018.510.8 27.024.329.1
2018-Jul-10 00:00N 23°48' W 085°06'19716.5 030 / 171019.527.0 30.026.029.3
2018-Jul-09 12:00N 24°36' W 088°36'18415.4 110 / 151019.810.8 28.024.629.5
2018-Jul-09 00:00N 25°18' W 091°54'   080 / 101019.027.0 29.024.930.2
Track history (hours):
 
Tides and Currents Weather Stations Pressure Air Temp Water Temp Dewpoint Dewpoint Depression Visibility Wind Speed Wind Dir Waves Ship Positions

Alliance St Louis

Owner: MAERSK LINE, LIMITED, Norfolk, VA. More information available from US FCC via Universal Licensing System and Coast Guard Vessel Documentation Center.

Last reported at 2018-Jul-18 18:00 UTC. Time now 2018-Jul-19 01:49 UTC.
Position N 40°36' W 048°42'.

Length 200 m; draft 8.9 m.

Type: Cargo ship. MMSI: 367093000.

Wind from 190 at 20 knots

Barometer 1026.0 mb
Air temperature 25.0 ° C
Visibility: greater than 10.8 NM
Dewpoint 23.6 ° C
Water temperature 25.1 ° C

Date/timePositionNaut miles runAvg speedWind from/ knotsBaromVisibWave heightAir tempDewpointWater temp
2018-Jul-18 18:00N 40°36' W 048°42'29516.4 190 / 201026.010.8 25.023.625.1
2018-Jul-18 00:00N 40°00' W 055°06'9716.2 200 / 151022.810.8 26.021.726.8
2018-Jul-17 18:00N 39°48' W 057°12'10818.0 240 / 141022.010.8 29.023.5
2018-Jul-17 12:00N 39°30' W 059°30'10417.3 240 / 151021.010.8 26.023.226.3
2018-Jul-17 06:00N 39°12' W 061°42'57514.8 240 / 81020.010.8 23.521.422.3
2018-Jul-15 15:12N 38°18' W 073°56'416.3
2018-Jul-15 14:59N 38°19' W 074°01'916.0
2018-Jul-15 14:25N 38°21' W 074°12'716.1
2018-Jul-15 14:00N 38°22' W 074°20'815.9
2018-Jul-15 13:30N 38°24' W 074°30'815.9
2018-Jul-15 13:00N 38°25' W 074°40'815.3
2018-Jul-15 12:30N 38°31' W 074°47'815.5
2018-Jul-15 12:01N 38°37' W 074°52'815.5
2018-Jul-15 11:31N 38°43' W 074°58'714.3
2018-Jul-15 11:00N 38°49' W 075°03'510.7
2018-Jul-15 10:30N 38°54' W 075°05'714.5
2018-Jul-15 10:00N 39°01' W 075°09'713.6
2018-Jul-15 09:31N 39°07' W 075°13'815.8
2018-Jul-15 09:01N 39°14' W 075°18'816.3
2018-Jul-15 08:30N 39°20' W 075°25'815.6
2018-Jul-15 08:00N 39°26' W 075°32'713.0
2018-Jul-15 07:30N 39°32' W 075°33'611.4
2018-Jul-15 07:01N 39°38' W 075°34'5 9.9
2018-Jul-15 06:30N 39°42' W 075°31'0 0.9
2018-Jul-15 05:58N 39°43' W 075°31'0 0.0
2018-Jul-15 05:28N 39°43' W 075°31'0 0.0
2018-Jul-15 04:58N 39°43' W 075°31'0 0.0
2018-Jul-15 04:28N 39°43' W 075°31'0 0.0
2018-Jul-15 03:58N 39°43' W 075°31'0 0.0
2018-Jul-15 03:28N 39°43' W 075°31'0 0.0
2018-Jul-15 02:58N 39°43' W 075°31'0 0.0
2018-Jul-15 02:28N 39°43' W 075°31'0 0.0
2018-Jul-15 01:58N 39°43' W 075°31'0 0.0
2018-Jul-15 01:28N 39°43' W 075°31'0 0.0
2018-Jul-15 00:58N 39°43' W 075°31'0 0.0
2018-Jul-15 00:28N 39°43' W 075°31'0 0.0
2018-Jul-14 23:58N 39°43' W 075°31'0 0.0
2018-Jul-14 23:28N 39°43' W 075°31'0 0.0
2018-Jul-14 22:58N 39°43' W 075°31'0 0.0
2018-Jul-14 22:28N 39°43' W 075°31'0 0.0
2018-Jul-14 21:58N 39°43' W 075°31'0 0.0
2018-Jul-14 21:28N 39°43' W 075°31'0 0.2
2018-Jul-14 21:00N 39°43' W 075°31'2 3.8
2018-Jul-14 20:30N 39°41' W 075°31'5 9.7
2018-Jul-14 20:00N 39°36' W 075°34'612.2
2018-Jul-14 19:30N 39°30' W 075°33'713.4
2018-Jul-14 19:00N 39°24' W 075°30'815.0
2018-Jul-14 18:30N 39°19' W 075°23'714.8
2018-Jul-14 18:00N 39°13' W 075°17'713.4
2018-Jul-14 17:30N 39°07' W 075°13'611.9
2018-Jul-14 17:00N 39°02' W 075°09'713.1
2018-Jul-14 16:30N 38°56' W 075°06'713.3
2018-Jul-14 16:00N 38°49' W 075°03'4 9.0
2018-Jul-14 15:30N 38°46' W 074°60'4 8.2
2018-Jul-14 15:00N 38°44' W 074°55'612.1
2018-Jul-14 14:29N 38°39' W 074°50'1515.1
2018-Jul-14 13:31N 38°26' W 074°40'816.3
2018-Jul-14 13:01N 38°18' W 074°39'816.4
2018-Jul-14 12:31N 38°10' W 074°38'816.5
2018-Jul-14 12:01N 38°02' W 074°38'14823.6
2018-Jul-14 12:00N 37°48' W 074°36'611.9 1022.027.0 26.520.023.4
2018-Jul-14 11:30N 37°54' W 074°37'816.2
2018-Jul-14 11:01N 37°46' W 074°37'816.2
2018-Jul-14 10:30N 37°37' W 074°36'816.1
2018-Jul-14 10:00N 37°29' W 074°35'714.5
2018-Jul-14 09:30N 37°22' W 074°36'815.8
2018-Jul-14 09:00N 37°14' W 074°36'815.8
2018-Jul-14 08:30N 37°07' W 074°36'15318.0
2018-Jul-14 00:00N 34°36' W 075°12'40810.3 060 / 141020.527.0 26.521.528.7
2018-Jul-12 08:14N 30°24' W 081°33'0 0.0
2018-Jul-12 05:46N 30°24' W 081°33'0 0.0
2018-Jul-12 05:29N 30°24' W 081°33'0 0.0
2018-Jul-12 04:48N 30°24' W 081°33'0 0.0
2018-Jul-12 04:20N 30°24' W 081°33'0 0.0
2018-Jul-12 04:00N 30°24' W 081°33'0 0.0
2018-Jul-12 02:47N 30°24' W 081°33'0 0.0
2018-Jul-12 00:38N 30°24' W 081°33'0 0.0
2018-Jul-12 00:30N 30°24' W 081°33'0 0.0
2018-Jul-12 00:00N 30°24' W 081°33'39 4.1
2018-Jul-11 14:21N 30°18' W 080°48'4814.3
2018-Jul-11 11:00N 29°42' W 080°12'19717.9 210 / 131017.2 28.023.129.6
2018-Jul-11 00:00N 26°30' W 079°24'11 8.8 030 / 101018.027.0 28.023.929.6
2018-Jul-10 22:46N 26°20' W 079°28'518.2
2018-Jul-10 22:30N 26°15' W 079°28'918.7
2018-Jul-10 22:00N 26°06' W 079°29'918.6
2018-Jul-10 21:30N 25°57' W 079°32'1018.9
2018-Jul-10 21:00N 25°47' W 079°33'1019.0
2018-Jul-10 20:30N 25°38' W 079°34'1018.9
2018-Jul-10 19:58N 25°28' W 079°35'13717.2
2018-Jul-10 12:00N 23°48' W 081°18'20917.4 020 / 81018.510.8 27.024.329.1
2018-Jul-10 00:00N 23°48' W 085°06'19716.5 030 / 171019.527.0 30.026.029.3
2018-Jul-09 12:00N 24°36' W 088°36'18415.4 110 / 151019.810.8 28.024.629.5
2018-Jul-09 00:00N 25°18' W 091°54'   080 / 101019.027.0 29.024.930.2

Dump ship's entire track history